Clayton, North Carolina
Current Conditions -  °F | °C
As of 8:35 PM on Tuesday 25 Nov 2014 (Local Time) from KJNX Reporting Station
Light Rain Light Rain  
Wind Chill: 52°   Ceiling: 2200
Heat Index: 52°   Visibility: 10mi
Dew Point: 50°   Wind: 0mph
Humidity: 94%   Direction: NA
Pressure: 30.1"   Gusts: NA
Location:  35.65°N, 78.46°W
Report Text: KJNX 260135Z AUTO 00000KT 10SM -RA OVC022 11/10 A3010 RMK AO2 P0003
Loading
Personal Weather Stations






























Interactive Weather Map New forecast layout! Learn more

10-Day Weather Forecast

Advertisements
Track Severe Weather on mobile